sensor_id;sensor_type;location;lat;lon;timestamp;pressure;altitude;pressure_sealevel;temperature;humidity
49835;BME280;35729;52.090;13.162;2022-12-18T00:00:19;102720.53;;;-6.34;94.25
49835;BME280;35729;52.090;13.162;2022-12-18T00:02:47;102720.28;;;-6.38;94.50
49835;BME280;35729;52.090;13.162;2022-12-18T00:05:16;102736.13;;;-6.31;94.28
49835;BME280;35729;52.090;13.162;2022-12-18T00:07:44;102722.09;;;-6.36;93.89
49835;BME280;35729;52.090;13.162;2022-12-18T00:10:13;102734.31;;;-6.32;94.22
49835;BME280;35729;52.090;13.162;2022-12-18T00:12:46;102725.91;;;-6.31;93.95
49835;BME280;35729;52.090;13.162;2022-12-18T00:15:15;102727.44;;;-6.33;93.94
49835;BME280;35729;52.090;13.162;2022-12-18T00:17:50;102727.44;;;-6.33;93.91
49835;BME280;35729;52.090;13.162;2022-12-18T00:20:19;102722.09;;;-6.36;93.74
49835;BME280;35729;52.090;13.162;2022-12-18T00:22:51;102726.28;;;-6.37;94.19
49835;BME280;35729;52.090;13.162;2022-12-18T00:25:19;102720.94;;;-6.40;94.08
49835;BME280;35729;52.090;13.162;2022-12-18T00:27:50;102724.38;;;-6.40;93.97
49835;BME280;35729;52.090;13.162;2022-12-18T00:30:19;102722.47;;;-6.42;93.96
49835;BME280;35729;52.090;13.162;2022-12-18T00:32:47;102732.59;;;-6.44;93.78
49835;BME280;35729;52.090;13.162;2022-12-18T00:35:16;102722.25;;;-6.45;93.80
49835;BME280;35729;52.090;13.162;2022-12-18T00:37:44;102730.78;;;-6.45;93.90
49835;BME280;35729;52.090;13.162;2022-12-18T00:40:13;102724.69;;;-6.47;93.92
49835;BME280;35729;52.090;13.162;2022-12-18T00:42:41;102722.25;;;-6.45;94.35
49835;BME280;35729;52.090;13.162;2022-12-18T00:45:28;102729.91;;;-6.45;94.13
49835;BME280;35729;52.090;13.162;2022-12-18T00:47:57;102722.25;;;-6.45;94.13
49835;BME280;35729;52.090;13.162;2022-12-18T00:50:25;102721.34;;;-6.46;94.05
49835;BME280;35729;52.090;13.162;2022-12-18T00:52:54;102730.56;;;-6.48;93.85
49835;BME280;35729;52.090;13.162;2022-12-18T00:55:22;102728.00;;;-6.48;94.08
49835;BME280;35729;52.090;13.162;2022-12-18T00:57:51;102736.66;;;-6.46;94.25
49835;BME280;35729;52.090;13.162;2022-12-18T01:00:20;102726.44;;;-6.46;94.05
49835;BME280;35729;52.090;13.162;2022-12-18T01:02:51;102729.78;;;-6.47;94.03
49835;BME280;35729;52.090;13.162;2022-12-18T01:05:20;102731.56;;;-6.46;94.15
49835;BME280;35729;52.090;13.162;2022-12-18T01:07:48;102739.22;;;-6.46;94.08
49835;BME280;35729;52.090;13.162;2022-12-18T01:10:17;102740.00;;;-6.47;93.97
49835;BME280;35729;52.090;13.162;2022-12-18T01:12:45;102742.56;;;-6.47;93.71
49835;BME280;35729;52.090;13.162;2022-12-18T01:15:14;102746.53;;;-6.50;93.68
49835;BME280;35729;52.090;13.162;2022-12-18T01:17:43;102746.41;;;-6.52;93.88
49835;BME280;35729;52.090;13.162;2022-12-18T01:20:14;102743.06;;;-6.51;94.01
49835;BME280;35729;52.090;13.162;2022-12-18T01:22:43;102748.97;;;-6.52;93.82
49835;BME280;35729;52.090;13.162;2022-12-18T01:25:11;102747.19;;;-6.53;93.76
49835;BME280;35729;52.090;13.162;2022-12-18T01:27:40;102740.28;;;-6.54;93.75
49835;BME280;35729;52.090;13.162;2022-12-18T01:30:09;102757.41;;;-6.53;93.95
49835;BME280;35729;52.090;13.162;2022-12-18T01:32:38;102758.16;;;-6.54;94.08
49835;BME280;35729;52.090;13.162;2022-12-18T01:35:07;102752.13;;;-6.55;94.13
49835;BME280;35729;52.090;13.162;2022-12-18T01:37:39;102756.38;;;-6.55;93.97
49835;BME280;35729;52.090;13.162;2022-12-18T01:40:08;102755.34;;;-6.57;93.64
49835;BME280;35729;52.090;13.162;2022-12-18T01:42:37;102756.13;;;-6.58;93.76
49835;BME280;35729;52.090;13.162;2022-12-18T01:45:23;102756.91;;;-6.59;93.55
49835;BME280;35729;52.090;13.162;2022-12-18T01:47:53;102760.97;;;-6.61;93.86
49835;BME280;35729;52.090;13.162;2022-12-18T01:50:25;102759.19;;;-6.62;94.11
49835;BME280;35729;52.090;13.162;2022-12-18T01:53:02;102758.19;;;-6.64;94.27
49835;BME280;35729;52.090;13.162;2022-12-18T01:55:36;102770.31;;;-6.62;93.87
49835;BME280;35729;52.090;13.162;2022-12-18T01:58:05;102768.63;;;-6.61;94.23
49835;BME280;35729;52.090;13.162;2022-12-18T02:00:34;102777.06;;;-6.62;93.75
49835;BME280;35729;52.090;13.162;2022-12-18T02:03:03;102769.16;;;-6.65;94.06
49835;BME280;35729;52.090;13.162;2022-12-18T02:05:40;102782.97;;;-6.63;94.11
49835;BME280;35729;52.090;13.162;2022-12-18T02:08:15;102769.41;;;-6.62;94.09
49835;BME280;35729;52.090;13.162;2022-12-18T02:10:48;102774.50;;;-6.62;94.31
49835;BME280;35729;52.090;13.162;2022-12-18T02:13:26;102772.88;;;-6.62;94.30
49835;BME280;35729;52.090;13.162;2022-12-18T02:16:02;102771.19;;;-6.61;94.32
49835;BME280;35729;52.090;13.162;2022-12-18T02:18:36;102777.06;;;-6.62;93.91
49835;BME280;35729;52.090;13.162;2022-12-18T02:21:12;102774.50;;;-6.62;94.26
49835;BME280;35729;52.090;13.162;2022-12-18T02:23:54;102766.84;;;-6.62;93.90
49835;BME280;35729;52.090;13.162;2022-12-18T02:26:30;102770.31;;;-6.62;93.96
49835;BME280;35729;52.090;13.162;2022-12-18T02:29:06;102783.09;;;-6.62;94.17
49835;BME280;35729;52.090;13.162;2022-12-18T02:31:45;102781.16;;;-6.64;94.26
49835;BME280;35729;52.090;13.162;2022-12-18T02:34:16;102788.31;;;-6.60;94.39
49835;BME280;35729;52.090;13.162;2022-12-18T02:36:47;102796.09;;;-6.59;94.37
49835;BME280;35729;52.090;13.162;2022-12-18T02:39:17;102791.88;;;-6.58;94.42
49835;BME280;35729;52.090;13.162;2022-12-18T02:41:50;102786.41;;;-6.63;94.08
49835;BME280;35729;52.090;13.162;2022-12-18T02:44:19;102776.28;;;-6.61;94.33
49835;BME280;35729;52.090;13.162;2022-12-18T02:46:50;102777.22;;;-6.61;94.12
49835;BME280;35729;52.090;13.162;2022-12-18T02:49:31;102778.84;;;-6.61;94.28
49835;BME280;35729;52.090;13.162;2022-12-18T02:52:09;102785.00;;;-6.59;94.56
49835;BME280;35729;52.090;13.162;2022-12-18T02:54:52;102789.19;;;-6.60;94.39
49835;BME280;35729;52.090;13.162;2022-12-18T02:57:33;102786.50;;;-6.61;94.39
49835;BME280;35729;52.090;13.162;2022-12-18T03:00:06;102783.97;;;-6.61;94.37
49835;BME280;35729;52.090;13.162;2022-12-18T03:02:39;102787.53;;;-6.59;94.60
49835;BME280;35729;52.090;13.162;2022-12-18T03:05:14;102791.09;;;-6.57;94.52
49835;BME280;35729;52.090;13.162;2022-12-18T03:07:47;102789.44;;;-6.57;94.71
49835;BME280;35729;52.090;13.162;2022-12-18T03:10:21;102780.75;;;-6.59;94.66
49835;BME280;35729;52.090;13.162;2022-12-18T03:13:00;102798.25;;;-6.53;94.83
49835;BME280;35729;52.090;13.162;2022-12-18T03:15:38;102800.94;;;-6.51;94.90
49835;BME280;35729;52.090;13.162;2022-12-18T03:18:11;102800.28;;;-6.49;94.87
49835;BME280;35729;52.090;13.162;2022-12-18T03:20:43;102801.31;;;-6.47;94.87
49835;BME280;35729;52.090;13.162;2022-12-18T03:23:15;102801.44;;;-6.45;94.92
49835;BME280;35729;52.090;13.162;2022-12-18T03:25:46;102793.88;;;-6.44;94.77
49835;BME280;35729;52.090;13.162;2022-12-18T03:28:21;102794.91;;;-6.42;94.97
49835;BME280;35729;52.090;13.162;2022-12-18T03:30:53;102790.69;;;-6.41;94.84
49835;BME280;35729;52.090;13.162;2022-12-18T03:33:26;102800.91;;;-6.41;94.84
49835;BME280;35729;52.090;13.162;2022-12-18T03:35:56;102804.59;;;-6.38;94.85
49835;BME280;35729;52.090;13.162;2022-12-18T03:38:25;102795.41;;;-6.35;95.00
49835;BME280;35729;52.090;13.162;2022-12-18T03:40:59;102800.75;;;-6.32;95.00
49835;BME280;35729;52.090;13.162;2022-12-18T03:43:41;102792.44;;;-6.30;94.91
49835;BME280;35729;52.090;13.162;2022-12-18T03:46:20;102792.53;;;-6.28;94.92
49835;BME280;35729;52.090;13.162;2022-12-18T03:48:56;102790.25;;;-6.25;95.03
49835;BME280;35729;52.090;13.162;2022-12-18T03:51:35;102786.78;;;-6.26;95.09
49835;BME280;35729;52.090;13.162;2022-12-18T03:54:06;102793.81;;;-6.23;94.98
49835;BME280;35729;52.090;13.162;2022-12-18T03:56:39;102789.72;;;-6.21;95.08
49835;BME280;35729;52.090;13.162;2022-12-18T03:59:12;102792.28;;;-6.21;94.99
49835;BME280;35729;52.090;13.162;2022-12-18T04:01:46;102800.06;;;-6.19;95.21
49835;BME280;35729;52.090;13.162;2022-12-18T04:04:16;102801.09;;;-6.17;95.36
49835;BME280;35729;52.090;13.162;2022-12-18T04:06:47;102803.75;;;-6.16;95.17
49835;BME280;35729;52.090;13.162;2022-12-18T04:09:18;102803.75;;;-6.16;95.18
49835;BME280;35729;52.090;13.162;2022-12-18T04:11:47;102818.31;;;-6.15;95.17
49835;BME280;35729;52.090;13.162;2022-12-18T04:14:18;102821.63;;;-6.16;95.28
49835;BME280;35729;52.090;13.162;2022-12-18T04:16:47;102820.22;;;-6.12;95.24
49835;BME280;35729;52.090;13.162;2022-12-18T04:19:15;102814.34;;;-6.11;95.41
49835;BME280;35729;52.090;13.162;2022-12-18T04:21:44;102804.25;;;-6.10;95.22
49835;BME280;35729;52.090;13.162;2022-12-18T04:24:12;102802.72;;;-6.08;95.26
49835;BME280;35729;52.090;13.162;2022-12-18T04:26:41;102796.81;;;-6.07;95.44
49835;BME280;35729;52.090;13.162;2022-12-18T04:29:09;102799.50;;;-6.05;95.42
49835;BME280;35729;52.090;13.162;2022-12-18T04:31:40;102804.63;;;-6.05;95.21
49835;BME280;35729;52.090;13.162;2022-12-18T04:34:09;102816.75;;;-6.02;95.14
49835;BME280;35729;52.090;13.162;2022-12-18T04:36:37;102813.44;;;-6.01;95.20
49835;BME280;35729;52.090;13.162;2022-12-18T04:39:06;102816.09;;;-6.00;95.42
49835;BME280;35729;52.090;13.162;2022-12-18T04:41:34;102816.97;;;-5.99;95.29
49835;BME280;35729;52.090;13.162;2022-12-18T04:44:03;102827.44;;;-5.96;95.15
49835;BME280;35729;52.090;13.162;2022-12-18T04:46:35;102814.66;;;-5.96;95.34
49835;BME280;35729;52.090;13.162;2022-12-18T04:49:06;102818.19;;;-5.94;95.29
49835;BME280;35729;52.090;13.162;2022-12-18T04:51:35;102810.63;;;-5.93;95.42
49835;BME280;35729;52.090;13.162;2022-12-18T04:54:04;102802.19;;;-5.92;95.14
49835;BME280;35729;52.090;13.162;2022-12-18T04:56:32;102827.91;;;-5.90;95.38
49835;BME280;35729;52.090;13.162;2022-12-18T04:59:01;102826.88;;;-5.92;95.04
49835;BME280;35729;52.090;13.162;2022-12-18T05:01:30;102827.78;;;-5.92;94.98
49835;BME280;35729;52.090;13.162;2022-12-18T05:03:58;102820.09;;;-5.92;94.99
49835;BME280;35729;52.090;13.162;2022-12-18T05:06:29;102820.09;;;-5.92;94.96
49835;BME280;35729;52.090;13.162;2022-12-18T05:08:58;102825.84;;;-5.94;95.14
49835;BME280;35729;52.090;13.162;2022-12-18T05:11:26;102828.53;;;-5.93;95.17
49835;BME280;35729;52.090;13.162;2022-12-18T05:13:55;102828.53;;;-5.93;95.17
49835;BME280;35729;52.090;13.162;2022-12-18T05:16:24;102832.00;;;-5.92;95.00
49835;BME280;35729;52.090;13.162;2022-12-18T05:18:52;102830.22;;;-5.93;95.11
49835;BME280;35729;52.090;13.162;2022-12-18T05:21:21;102825.84;;;-5.94;95.18
49835;BME280;35729;52.090;13.162;2022-12-18T05:23:52;102827.66;;;-5.93;95.16
49835;BME280;35729;52.090;13.162;2022-12-18T05:26:20;102834.44;;;-5.94;95.18
49835;BME280;35729;52.090;13.162;2022-12-18T05:28:49;102836.19;;;-5.93;95.27
49835;BME280;35729;52.090;13.162;2022-12-18T05:31:17;102832.75;;;-5.93;95.21
49835;BME280;35729;52.090;13.162;2022-12-18T05:33:46;102833.53;;;-5.94;94.95
49835;BME280;35729;52.090;13.162;2022-12-18T05:36:17;102842.22;;;-5.92;95.08
49835;BME280;35729;52.090;13.162;2022-12-18T05:38:47;102842.13;;;-5.94;95.27
49835;BME280;35729;52.090;13.162;2022-12-18T05:41:18;102845.53;;;-5.93;95.08
49835;BME280;35729;52.090;13.162;2022-12-18T05:43:46;102847.22;;;-5.94;95.19
49835;BME280;35729;52.090;13.162;2022-12-18T05:46:17;102852.19;;;-5.95;95.09
49835;BME280;35729;52.090;13.162;2022-12-18T05:48:45;102852.19;;;-5.95;95.19
49835;BME280;35729;52.090;13.162;2022-12-18T05:51:18;102854.91;;;-5.94;95.17
49835;BME280;35729;52.090;13.162;2022-12-18T05:53:47;102843.75;;;-5.94;95.39
49835;BME280;35729;52.090;13.162;2022-12-18T05:56:20;102850.78;;;-5.92;95.34
49835;BME280;35729;52.090;13.162;2022-12-18T05:58:51;102837.75;;;-5.95;95.19
49835;BME280;35729;52.090;13.162;2022-12-18T06:01:22;102842.34;;;-5.91;95.39
49835;BME280;35729;52.090;13.162;2022-12-18T06:03:51;102848.47;;;-5.89;95.48
49835;BME280;35729;52.090;13.162;2022-12-18T06:06:21;102856.16;;;-5.89;95.26
49835;BME280;35729;52.090;13.162;2022-12-18T06:08:51;102848.47;;;-5.89;95.50
49835;BME280;35729;52.090;13.162;2022-12-18T06:11:23;102868.03;;;-5.89;95.61
49835;BME280;35729;52.090;13.162;2022-12-18T06:13:53;102879.16;;;-5.89;95.47
49835;BME280;35729;52.090;13.162;2022-12-18T06:16:22;102875.47;;;-5.92;95.63
49835;BME280;35729;52.090;13.162;2022-12-18T06:18:57;102895.63;;;-5.85;95.60
49835;BME280;35729;52.090;13.162;2022-12-18T06:21:26;102901.75;;;-5.83;95.79
49835;BME280;35729;52.090;13.162;2022-12-18T06:23:54;102894.06;;;-5.83;95.81
49835;BME280;35729;52.090;13.162;2022-12-18T06:26:25;102891.78;;;-5.80;95.60
49835;BME280;35729;52.090;13.162;2022-12-18T06:28:54;102874.75;;;-5.79;95.75
49835;BME280;35729;52.090;13.162;2022-12-18T06:31:22;102874.13;;;-5.77;95.56
49835;BME280;35729;52.090;13.162;2022-12-18T06:33:51;102874.13;;;-5.77;95.60
49835;BME280;35729;52.090;13.162;2022-12-18T06:36:19;102874.22;;;-5.75;95.49
49835;BME280;35729;52.090;13.162;2022-12-18T06:38:48;102878.47;;;-5.76;95.59
49835;BME280;35729;52.090;13.162;2022-12-18T06:41:19;102883.56;;;-5.76;95.52
49835;BME280;35729;52.090;13.162;2022-12-18T06:43:50;102887.81;;;-5.76;95.69
49835;BME280;35729;52.090;13.162;2022-12-18T06:46:19;102892.00;;;-5.77;95.33
49835;BME280;35729;52.090;13.162;2022-12-18T06:48:49;102892.28;;;-5.74;95.39
49835;BME280;35729;52.090;13.162;2022-12-18T06:51:19;102885.38;;;-5.75;95.57
49835;BME280;35729;52.090;13.162;2022-12-18T06:53:48;102886.34;;;-5.73;95.57
49835;BME280;35729;52.090;13.162;2022-12-18T06:56:16;102888.16;;;-5.72;95.57
49835;BME280;35729;52.090;13.162;2022-12-18T06:58:45;102893.38;;;-5.70;95.72
49835;BME280;35729;52.090;13.162;2022-12-18T07:01:18;102902.97;;;-5.67;95.37
49835;BME280;35729;52.090;13.162;2022-12-18T07:03:51;102903.88;;;-5.67;95.60
49835;BME280;35729;52.090;13.162;2022-12-18T07:06:21;102916.53;;;-5.68;95.48
49835;BME280;35729;52.090;13.162;2022-12-18T07:08:51;102920.09;;;-5.66;95.49
49835;BME280;35729;52.090;13.162;2022-12-18T07:11:21;102930.31;;;-5.66;95.58
49835;BME280;35729;52.090;13.162;2022-12-18T07:13:49;102927.66;;;-5.68;95.13
49835;BME280;35729;52.090;13.162;2022-12-18T07:16:27;102930.31;;;-5.66;95.46
49835;BME280;35729;52.090;13.162;2022-12-18T07:18:56;102927.00;;;-5.65;95.62
49835;BME280;35729;52.090;13.162;2022-12-18T07:21:24;102927.00;;;-5.65;95.43
49835;BME280;35729;52.090;13.162;2022-12-18T07:23:53;102921.25;;;-5.63;95.36
49835;BME280;35729;52.090;13.162;2022-12-18T07:26:22;102918.78;;;-5.61;95.49
49835;BME280;35729;52.090;13.162;2022-12-18T07:28:54;102919.81;;;-5.59;95.60
49835;BME280;35729;52.090;13.162;2022-12-18T07:31:24;102920.84;;;-5.57;95.43
49835;BME280;35729;52.090;13.162;2022-12-18T07:33:55;102923.41;;;-5.57;95.50
49835;BME280;35729;52.090;13.162;2022-12-18T07:36:24;102913.19;;;-5.57;95.31
49835;BME280;35729;52.090;13.162;2022-12-18T07:38:53;102901.91;;;-5.59;95.17
49835;BME280;35729;52.090;13.162;2022-12-18T07:41:21;102907.03;;;-5.59;95.11
49835;BME280;35729;52.090;13.162;2022-12-18T07:43:50;102907.25;;;-5.56;95.23
49835;BME280;35729;52.090;13.162;2022-12-18T07:46:18;102907.41;;;-5.54;95.39
49835;BME280;35729;52.090;13.162;2022-12-18T07:48:47;102907.53;;;-5.53;95.20
49835;BME280;35729;52.090;13.162;2022-12-18T07:51:18;102905.06;;;-5.51;95.34
49835;BME280;35729;52.090;13.162;2022-12-18T07:53:47;102909.31;;;-5.52;94.97
49835;BME280;35729;52.090;13.162;2022-12-18T07:56:15;102904.97;;;-5.53;95.09
49835;BME280;35729;52.090;13.162;2022-12-18T07:58:47;102904.19;;;-5.52;95.13
49835;BME280;35729;52.090;13.162;2022-12-18T08:01:15;102910.19;;;-5.51;95.42
49835;BME280;35729;52.090;13.162;2022-12-18T08:03:44;102915.56;;;-5.48;95.35
49835;BME280;35729;52.090;13.162;2022-12-18T08:06:12;102926.69;;;-5.48;95.29
49835;BME280;35729;52.090;13.162;2022-12-18T08:08:43;102928.47;;;-5.47;95.20
49835;BME280;35729;52.090;13.162;2022-12-18T08:11:12;102930.38;;;-5.44;95.30
49835;BME280;35729;52.090;13.162;2022-12-18T08:13:40;102929.34;;;-5.46;94.61
49835;BME280;35729;52.090;13.162;2022-12-18T08:16:09;102931.03;;;-5.47;94.59
49835;BME280;35729;52.090;13.162;2022-12-18T08:18:37;102940.25;;;-5.49;94.42
49835;BME280;35729;52.090;13.162;2022-12-18T08:21:09;102938.34;;;-5.51;94.21
49835;BME280;35729;52.090;13.162;2022-12-18T08:23:38;102946.91;;;-5.51;94.48
49835;BME280;35729;52.090;13.162;2022-12-18T08:26:10;102938.97;;;-5.54;94.31
49835;BME280;35729;52.090;13.162;2022-12-18T08:28:39;102931.19;;;-5.56;94.45
49835;BME280;35729;52.090;13.162;2022-12-18T08:31:08;102930.44;;;-5.54;94.59
49835;BME280;35729;52.090;13.162;2022-12-18T08:33:37;102930.44;;;-5.54;94.38
49835;BME280;35729;52.090;13.162;2022-12-18T08:36:08;102932.84;;;-5.56;94.35
49835;BME280;35729;52.090;13.162;2022-12-18T08:38:37;102933.88;;;-5.54;94.57
49835;BME280;35729;52.090;13.162;2022-12-18T08:41:10;102934.88;;;-5.52;94.50
49835;BME280;35729;52.090;13.162;2022-12-18T08:43:39;102940.88;;;-5.51;94.29
49835;BME280;35729;52.090;13.162;2022-12-18T08:46:21;102945.34;;;-5.49;94.59
49835;BME280;35729;52.090;13.162;2022-12-18T08:48:51;102966.09;;;-5.46;94.68
49835;BME280;35729;52.090;13.162;2022-12-18T08:51:20;102968.88;;;-5.43;95.04
49835;BME280;35729;52.090;13.162;2022-12-18T08:53:48;102975.25;;;-5.37;94.70
49835;BME280;35729;52.090;13.162;2022-12-18T08:56:19;102987.50;;;-5.33;94.81
49835;BME280;35729;52.090;13.162;2022-12-18T08:58:51;102994.66;;;-5.29;94.95
49835;BME280;35729;52.090;13.162;2022-12-18T09:01:21;103000.38;;;-5.21;94.79
49835;BME280;35729;52.090;13.162;2022-12-18T09:03:50;103000.72;;;-5.17;94.71
49835;BME280;35729;52.090;13.162;2022-12-18T09:06:20;103002.66;;;-5.14;94.15
49835;BME280;35729;52.090;13.162;2022-12-18T09:08:48;103003.66;;;-5.12;93.78
49835;BME280;35729;52.090;13.162;2022-12-18T09:11:22;102995.09;;;-5.13;93.39
49835;BME280;35729;52.090;13.162;2022-12-18T09:13:51;102990.09;;;-5.11;93.61
49835;BME280;35729;52.090;13.162;2022-12-18T09:16:21;102986.50;;;-5.13;92.76
49835;BME280;35729;52.090;13.162;2022-12-18T09:18:49;102999.31;;;-5.13;92.46
49835;BME280;35729;52.090;13.162;2022-12-18T09:21:20;102987.16;;;-5.16;93.04
49835;BME280;35729;52.090;13.162;2022-12-18T09:23:49;102981.28;;;-5.15;93.30
49835;BME280;35729;52.090;13.162;2022-12-18T09:26:21;102982.31;;;-5.13;93.90
49835;BME280;35729;52.090;13.162;2022-12-18T09:28:50;102985.84;;;-5.11;93.79
49835;BME280;35729;52.090;13.162;2022-12-18T09:31:20;102993.69;;;-5.09;93.98
49835;BME280;35729;52.090;13.162;2022-12-18T09:33:49;102992.38;;;-5.04;93.77
49835;BME280;35729;52.090;13.162;2022-12-18T09:36:18;102987.38;;;-5.02;93.19
49835;BME280;35729;52.090;13.162;2022-12-18T09:38:46;102982.13;;;-5.04;92.81
49835;BME280;35729;52.090;13.162;2022-12-18T09:41:31;102972.66;;;-5.05;92.52
49835;BME280;35729;52.090;13.162;2022-12-18T09:44:05;102976.00;;;-5.06;93.00
49835;BME280;35729;52.090;13.162;2022-12-18T09:46:44;102973.31;;;-5.08;92.53
49835;BME280;35729;52.090;13.162;2022-12-18T09:49:14;102968.09;;;-5.09;92.10
49835;BME280;35729;52.090;13.162;2022-12-18T09:51:46;102951.94;;;-5.08;92.78
49835;BME280;35729;52.090;13.162;2022-12-18T09:54:20;102960.50;;;-5.08;92.51
49835;BME280;35729;52.090;13.162;2022-12-18T09:56:53;102957.19;;;-5.07;92.61
49835;BME280;35729;52.090;13.162;2022-12-18T09:59:25;102949.63;;;-5.05;92.14
49835;BME280;35729;52.090;13.162;2022-12-18T10:01:54;102948.59;;;-5.07;92.54
49835;BME280;35729;52.090;13.162;2022-12-18T10:04:23;102944.38;;;-5.07;91.88
49835;BME280;35729;52.090;13.162;2022-12-18T10:06:56;102938.25;;;-5.09;92.01
49835;BME280;35729;52.090;13.162;2022-12-18T10:09:33;102936.56;;;-5.08;91.70
49835;BME280;35729;52.090;13.162;2022-12-18T10:12:12;102935.78;;;-5.07;92.33
49835;BME280;35729;52.090;13.162;2022-12-18T10:14:50;102940.16;;;-5.06;92.20
49835;BME280;35729;52.090;13.162;2022-12-18T10:17:26;102935.03;;;-5.06;92.26
49835;BME280;35729;52.090;13.162;2022-12-18T10:20:15;102930.94;;;-5.04;92.55
49835;BME280;35729;52.090;13.162;2022-12-18T10:22:52;102929.34;;;-5.02;92.56
49835;BME280;35729;52.090;13.162;2022-12-18T10:25:25;102924.25;;;-5.02;91.74
49835;BME280;35729;52.090;13.162;2022-12-18T10:28:00;102925.38;;;-4.98;91.85
49835;BME280;35729;52.090;13.162;2022-12-18T10:30:35;102919.59;;;-4.96;92.19
49835;BME280;35729;52.090;13.162;2022-12-18T10:33:04;102916.25;;;-4.95;91.73
49835;BME280;35729;52.090;13.162;2022-12-18T10:35:32;102913.72;;;-4.95;91.20
49835;BME280;35729;52.090;13.162;2022-12-18T10:38:04;102913.81;;;-4.93;92.14
49835;BME280;35729;52.090;13.162;2022-12-18T10:40:48;102917.41;;;-4.91;92.25
49835;BME280;35729;52.090;13.162;2022-12-18T10:43:24;102908.19;;;-4.89;92.08
49835;BME280;35729;52.090;13.162;2022-12-18T10:46:11;102911.72;;;-4.87;91.61
49835;BME280;35729;52.090;13.162;2022-12-18T10:48:51;102908.28;;;-4.87;91.00
49835;BME280;35729;52.090;13.162;2022-12-18T10:51:22;102904.81;;;-4.88;91.40
49835;BME280;35729;52.090;13.162;2022-12-18T10:53:54;102894.81;;;-4.85;91.83
49835;BME280;35729;52.090;13.162;2022-12-18T10:56:25;102883.81;;;-4.84;91.60
49835;BME280;35729;52.090;13.162;2022-12-18T10:59:01;102886.47;;;-4.82;90.93
49835;BME280;35729;52.090;13.162;2022-12-18T11:01:45;102889.16;;;-4.81;90.95
49835;BME280;35729;52.090;13.162;2022-12-18T11:04:18;102884.03;;;-4.81;91.19
49835;BME280;35729;52.090;13.162;2022-12-18T11:06:56;102893.06;;;-4.74;91.72
49835;BME280;35729;52.090;13.162;2022-12-18T11:09:26;102887.28;;;-4.71;91.36
49835;BME280;35729;52.090;13.162;2022-12-18T11:11:56;102889.16;;;-4.69;91.54
49835;BME280;35729;52.090;13.162;2022-12-18T11:14:29;102892.75;;;-4.67;91.14
49835;BME280;35729;52.090;13.162;2022-12-18T11:17:00;102886.97;;;-4.64;90.73
49835;BME280;35729;52.090;13.162;2022-12-18T11:19:32;102889.63;;;-4.63;90.74
49835;BME280;35729;52.090;13.162;2022-12-18T11:22:19;102890.53;;;-4.62;89.63
49835;BME280;35729;52.090;13.162;2022-12-18T11:24:54;102885.41;;;-4.62;90.11
49835;BME280;35729;52.090;13.162;2022-12-18T11:27:23;102884.66;;;-4.61;90.25
49835;BME280;35729;52.090;13.162;2022-12-18T11:30:08;102877.72;;;-4.62;90.73
49835;BME280;35729;52.090;13.162;2022-12-18T11:32:39;102876.16;;;-4.60;90.87
49835;BME280;35729;52.090;13.162;2022-12-18T11:35:17;102877.38;;;-4.55;90.95
49835;BME280;35729;52.090;13.162;2022-12-18T11:37:50;102887.00;;;-4.52;91.07
49835;BME280;35729;52.090;13.162;2022-12-18T11:40:29;102888.09;;;-4.49;90.28
49835;BME280;35729;52.090;13.162;2022-12-18T11:43:04;102889.13;;;-4.47;90.56
49835;BME280;35729;52.090;13.162;2022-12-18T11:45:41;102883.44;;;-4.43;90.87
49835;BME280;35729;52.090;13.162;2022-12-18T11:48:17;102888.78;;;-4.39;90.31
49835;BME280;35729;52.090;13.162;2022-12-18T11:50:50;102893.25;;;-4.37;91.21
49835;BME280;35729;52.090;13.162;2022-12-18T11:53:19;102897.03;;;-4.32;90.73
49835;BME280;35729;52.090;13.162;2022-12-18T11:56:01;102894.69;;;-4.29;90.49
49835;BME280;35729;52.090;13.162;2022-12-18T11:58:43;102902.53;;;-4.27;90.20
49835;BME280;35729;52.090;13.162;2022-12-18T12:01:34;102899.72;;;-4.18;91.11
49835;BME280;35729;52.090;13.162;2022-12-18T12:04:20;102900.31;;;-4.11;91.28
49835;BME280;35729;52.090;13.162;2022-12-18T12:06:53;102898.41;;;-4.01;91.15
49835;BME280;35729;52.090;13.162;2022-12-18T12:09:34;102898.84;;;-3.95;91.43
49835;BME280;35729;52.090;13.162;2022-12-18T12:12:17;102901.84;;;-3.89;91.25
49835;BME280;35729;52.090;13.162;2022-12-18T12:14:57;102907.44;;;-3.83;90.86
49835;BME280;35729;52.090;13.162;2022-12-18T12:17:40;102896.59;;;-3.79;90.91
49835;BME280;35729;52.090;13.162;2022-12-18T12:20:19;102909.78;;;-3.74;90.45
49835;BME280;35729;52.090;13.162;2022-12-18T12:22:54;102913.31;;;-3.72;89.31
49835;BME280;35729;52.090;13.162;2022-12-18T12:25:35;102910.66;;;-3.73;89.08
49835;BME280;35729;52.090;13.162;2022-12-18T12:28:15;102907.88;;;-3.77;89.70
49835;BME280;35729;52.090;13.162;2022-12-18T12:30:55;102903.28;;;-3.81;88.70
49835;BME280;35729;52.090;13.162;2022-12-18T12:33:39;102895.59;;;-3.81;89.29
49835;BME280;35729;52.090;13.162;2022-12-18T12:36:16;102878.19;;;-3.85;89.13
49835;BME280;35729;52.090;13.162;2022-12-18T12:45:18;102881.97;;;-3.80;89.56
49835;BME280;35729;52.090;13.162;2022-12-18T12:47:49;102898.25;;;-3.79;89.34
49835;BME280;35729;52.090;13.162;2022-12-18T12:50:21;102899.94;;;-3.80;88.83
49835;BME280;35729;52.090;13.162;2022-12-18T12:52:52;102891.38;;;-3.80;89.86
49835;BME280;35729;52.090;13.162;2022-12-18T12:55:22;102879.41;;;-3.80;89.27
49835;BME280;35729;52.090;13.162;2022-12-18T12:57:58;102881.97;;;-3.80;88.95
49835;BME280;35729;52.090;13.162;2022-12-18T13:00:37;102881.88;;;-3.81;88.07
49835;BME280;35729;52.090;13.162;2022-12-18T13:03:12;102873.84;;;-3.86;87.26
49835;BME280;35729;52.090;13.162;2022-12-18T13:05:48;102870.50;;;-3.85;88.77
49835;BME280;35729;52.090;13.162;2022-12-18T13:08:24;102876.50;;;-3.84;88.98
49835;BME280;35729;52.090;13.162;2022-12-18T13:10:53;102874.09;;;-3.83;87.27